METAR AND TAF INFORMATION
METAR FOR LIMZ
ADDS - METARS form results

(2316 UTC 21 April 2018)
Data provider http://aviationweather.gov/adds/metars/
 
Forecast for: LIMZ (LEVALDIGI , IT)
Text: TAF LIMZ 211700Z 2118/2218 VRB05KT CAVOK
Forecast period: 1800 UTC 21 April 2018 to 1800 UTC 22 April 2018
Forecast type: FROM: standard forecast or significant change
Winds: variable direction winds at 6 MPH (5 knots; 2.6 m/s)
Visibility: 6 or more miles (10+ km)
Clouds: not forecast
Weather: NSW  (no significant weather)
Forecast for: LIMZ (LEVALDIGI , IT)
Text: TAF LIMZ 211700Z 2118/2218 VRB05KT CAVOK
Forecast period: 1800 UTC 21 April 2018 to 1800 UTC 22 April 2018
Forecast type: FROM: standard forecast or significant change
Winds: variable direction winds at 6 MPH (5 knots; 2.6 m/s)
Visibility: 6 or more miles (10+ km)
Clouds: not forecast
Weather: NSW  (no significant weather)

 AIRPORT MAP

 RUNWAY INFORMATION
Runway 03 Runway length 6903 ft Runway width 148 ft
Runway elevation 1267 ft Runway displaced threshold 0 ft Runway heading 32
Runway 21 Runway length 6903 ft Runway width 148 ft
Runway elevation 1217 ft Runway displaced threshold 0 ft Runway heading 212

 AIRPORT FREQUENCIES
Type AFIS Name CUNEO INFO Frequency 119.55 MHZ

 AIRPORT NEAR NAVIGATION AIDS
Type NDB Name Levaldigi Frequency 371 KHZ



© 2017-2018 LuxairVA.com | All Rights Reserved |